Time;durP1;ratioP1;P1;durP2;ratioP2;P2;SDS_P1;SDS_P2;PMS_P1;PMS_P2;Temp;Humidity;BMP_temperature;BMP_pressure;BME280_temperature;BME280_humidity;BME280_pressure;Samples;Min_cycle;Max_cycle;Signal;HPM_P1;HPM_P2
2022/11/01 00:01:25;;;;;;;42.65;29.13;;;;;;;13.86;100.00;101128.72;4985470;28;20257;-56
2022/11/01 00:03:52;;;;;;;40.00;29.33;;;;;;;13.83;100.00;101128.78;4980579;28;20767;-55
2022/11/01 00:06:20;;;;;;;34.67;26.40;;;;;;;13.85;100.00;101121.69;4985633;28;20258;-56
2022/11/01 00:08:47;;;;;;;31.17;27.65;;;;;;;13.89;100.00;101122.53;4977675;28;20230;-55
2022/11/01 00:11:15;;;;;;;33.75;27.58;;;;;;;14.01;100.00;101101.34;4982390;28;20230;-56
2022/11/01 00:13:45;;;;;;;36.15;29.15;;;;;;;14.01;100.00;101090.78;4980142;28;20321;-54
2022/11/01 00:16:11;;;;;;;31.55;26.80;;;;;;;14.00;100.00;101086.34;4974410;28;20227;-59
2022/11/01 00:18:38;;;;;;;28.85;25.75;;;;;;;14.05;100.00;101066.09;4976666;28;20237;-55
2022/11/01 00:21:05;;;;;;;36.40;28.10;;;;;;;13.99;100.00;101067.00;4971882;28;20423;-55
2022/11/01 00:23:33;;;;;;;35.50;30.17;;;;;;;13.92;100.00;101069.72;4982340;28;20238;-57
2022/11/01 00:26:00;;;;;;;38.55;28.58;;;;;;;13.89;100.00;101069.75;4987036;28;20305;-56
2022/11/01 00:28:28;;;;;;;38.05;28.95;;;;;;;13.82;100.00;101074.22;4980994;28;20238;-55
2022/11/01 00:30:56;;;;;;;30.08;26.17;;;;;;;13.85;100.00;101074.19;4976252;28;20289;-56
2022/11/01 00:33:22;;;;;;;38.33;27.48;;;;;;;13.96;100.00;101068.81;4974881;28;20245;-55
2022/11/01 00:35:49;;;;;;;33.22;26.52;;;;;;;14.05;100.00;101074.00;4973487;28;20289;-56
2022/11/01 00:38:16;;;;;;;32.60;26.52;;;;;;;14.05;100.00;101071.38;4991208;28;20256;-55
2022/11/01 00:40:45;;;;;;;30.20;23.25;;;;;;;14.07;100.00;101074.84;4983433;28;20249;-54
2022/11/01 00:43:13;;;;;;;34.55;27.25;;;;;;;13.98;100.00;101081.13;4986189;28;20228;-56
2022/11/01 00:45:39;;;;;;;29.65;26.48;;;;;;;13.89;100.00;101096.16;4979386;28;20537;-55
2022/11/01 00:48:06;;;;;;;30.17;22.00;;;;;;;13.92;100.00;101096.13;4975169;28;20238;-54
2022/11/01 00:50:33;;;;;;;33.78;26.35;;;;;;;13.88;100.00;101089.13;4988394;28;20726;-55
2022/11/01 00:53:00;;;;;;;29.33;22.83;;;;;;;14.01;100.00;101090.78;4990566;28;20245;-61
2022/11/01 00:55:30;;;;;;;31.95;25.50;;;;;;;13.95;100.00;101077.63;4987790;28;20249;-55
2022/11/01 00:57:58;;;;;;;29.23;23.27;;;;;;;13.99;100.00;101071.41;4991838;28;20226;-56
2022/11/01 01:00:25;;;;;;;29.60;24.80;;;;;;;13.94;100.00;101075.88;4979991;28;20264;-56
2022/11/01 01:02:52;;;;;;;28.65;25.55;;;;;;;13.89;100.00;101064.47;4982846;28;20238;-56
2022/11/01 01:05:19;;;;;;;31.65;26.02;;;;;;;13.91;100.00;101057.44;4993715;28;20316;-56
2022/11/01 01:07:46;;;;;;;35.35;26.38;;;;;;;13.85;100.00;101053.06;4976930;28;20234;-56
2022/11/01 01:10:13;;;;;;;26.27;22.02;;;;;;;13.98;100.00;101038.00;4989325;28;20233;-56
2022/11/01 01:12:40;;;;;;;26.42;23.23;;;;;;;13.92;100.00;101033.66;4982780;28;20811;-55
2022/11/01 01:15:09;;;;;;;28.80;25.40;;;;;;;13.99;100.00;101029.19;4979580;28;20226;-56
2022/11/01 01:17:36;;;;;;;28.40;25.40;;;;;;;13.91;100.00;101015.19;4983529;28;20237;-56
2022/11/01 01:20:03;;;;;;;33.30;24.60;;;;;;;13.90;100.00;101008.16;4980871;28;20723;-55
2022/11/01 01:22:30;;;;;;;32.53;26.88;;;;;;;13.88;100.00;101012.59;4972482;28;20325;-54
2022/11/01 01:24:57;;;;;;;29.48;25.65;;;;;;;13.76;100.00;101014.47;4980748;28;20230;-57
2022/11/01 01:27:24;;;;;;;30.90;24.25;;;;;;;13.83;100.00;101013.50;4976612;28;20266;-55
2022/11/01 01:29:51;;;;;;;25.52;21.25;;;;;;;13.95;100.00;101011.63;4974919;28;20245;-55
2022/11/01 01:32:24;;;;;;;28.13;24.88;;;;;;;13.80;100.00;101010.03;4980620;28;20325;-56
2022/11/01 01:34:51;;;;;;;36.42;27.75;;;;;;;13.65;100.00;101047.97;4979461;28;20723;-56
2022/11/01 01:37:19;;;;;;;34.28;24.48;;;;;;;13.53;100.00;101050.72;4987365;28;20850;-55
2022/11/01 01:39:45;;;;;;;30.40;22.65;;;;;;;13.67;100.00;101040.91;4988412;28;20315;-56
2022/11/01 01:42:17;;;;;;;28.75;22.45;;;;;;;13.54;100.00;101052.47;4983446;28;20693;-55
2022/11/01 01:45:15;;;;;;;30.55;24.77;;;;;;;13.47;100.00;101056.91;4978892;28;20234;-55
2022/11/01 01:47:44;;;;;;;27.08;23.65;;;;;;;13.41;100.00;101061.34;4985899;28;20864;-55
2022/11/01 01:50:14;;;;;;;26.98;24.05;;;;;;;13.41;100.00;101049.06;4976533;28;20235;-55
2022/11/01 01:52:44;;;;;;;28.55;23.65;;;;;;;13.52;100.00;101038.44;4980859;28;20826;-54
2022/11/01 01:55:11;;;;;;;28.95;23.13;;;;;;;13.73;100.00;101032.97;4981158;28;20234;-56
2022/11/01 01:57:39;;;;;;;27.77;22.85;;;;;;;13.63;100.00;101030.41;4982158;28;20233;-56
2022/11/01 02:00:07;;;;;;;26.10;22.05;;;;;;;13.94;100.00;101020.44;4983196;28;20968;-54
2022/11/01 02:02:33;;;;;;;32.50;26.00;;;;;;;13.90;100.00;101009.06;4976368;28;20727;-54
2022/11/01 02:05:06;;;;;;;26.38;23.77;;;;;;;13.88;100.00;101004.66;4976770;28;20739;-55
2022/11/01 02:07:33;;;;;;;24.70;21.88;;;;;;;13.83;100.00;100994.16;4970425;28;20775;-54
2022/11/01 02:10:00;;;;;;;26.38;23.58;;;;;;;13.75;100.00;100983.66;4982662;28;20325;-56
2022/11/01 02:12:32;;;;;;;27.27;23.75;;;;;;;13.81;100.00;100978.31;4981887;28;20239;-55
2022/11/01 02:14:59;;;;;;;29.80;26.10;;;;;;;13.60;100.00;100968.00;4987961;28;20238;-55
2022/11/01 02:17:28;;;;;;;28.35;23.70;;;;;;;13.72;100.00;100962.56;4987318;28;20756;-56
2022/11/01 02:20:08;;;;;;;31.77;24.83;;;;;;;13.63;100.00;100965.34;4976520;28;20825;-55
2022/11/01 02:22:49;;;;;;;28.73;23.40;;;;;;;13.79;100.00;100963.38;4971947;28;20597;-55
2022/11/01 02:25:27;;;;;;;34.72;23.75;;;;;;;13.73;100.00;100963.47;4971089;28;20668;-55
2022/11/01 02:28:09;;;;;;;28.92;25.85;;;;;;;13.53;100.00;100959.25;4986493;28;20257;-55
2022/11/01 02:30:40;;;;;;;34.08;25.92;;;;;;;13.49;100.00;100954.03;4975543;28;20229;-55
2022/11/01 02:33:17;;;;;;;32.13;26.45;;;;;;;13.64;100.00;100945.09;4980812;28;20237;-55
2022/11/01 02:35:51;;;;;;;31.70;25.05;;;;;;;13.64;100.00;100950.38;4985840;28;20790;-54
2022/11/01 02:38:22;;;;;;;24.42;21.85;;;;;;;13.85;100.00;100935.16;4966845;28;20759;-55
2022/11/01 02:40:55;;;;;;;30.88;23.27;;;;;;;13.82;100.00;100935.19;4979410;28;20222;-54
2022/11/01 02:43:25;;;;;;;28.35;25.15;;;;;;;13.70;100.00;100938.00;4975780;28;20226;-56
2022/11/01 02:45:52;;;;;;;27.38;24.63;;;;;;;13.68;100.00;100933.59;4969058;28;20235;-56
2022/11/01 02:48:21;;;;;;;30.50;26.35;;;;;;;13.65;100.00;100941.56;4980576;28;20241;-55
2022/11/01 02:50:51;;;;;;;27.92;24.17;;;;;;;13.56;100.00;100929.34;4983330;28;20238;-55
2022/11/01 02:53:18;;;;;;;33.10;25.52;;;;;;;13.55;100.00;100928.47;4985424;28;20234;-55
2022/11/01 02:55:44;;;;;;;33.05;25.90;;;;;;;13.46;100.00;100925.03;4985969;28;20237;-54
2022/11/01 02:58:15;;;;;;;25.30;22.60;;;;;;;13.63;100.00;100925.75;4975660;28;20810;-56
2022/11/01 03:00:44;;;;;;;26.85;23.55;;;;;;;13.74;100.00;100913.31;4984744;28;20226;-56
2022/11/01 03:03:14;;;;;;;28.17;23.98;;;;;;;13.73;100.00;100911.56;4977442;28;20650;-57
2022/11/01 03:05:49;;;;;;;28.23;22.75;;;;;;;13.69;100.00;100909.88;4977733;28;20350;-54
2022/11/01 03:08:18;;;;;;;27.77;24.42;;;;;;;13.55;100.00;100930.25;4981522;28;20257;-55
2022/11/01 03:10:50;;;;;;;35.80;28.02;;;;;;;13.61;100.00;100941.59;4984571;28;20240;-55
2022/11/01 03:13:28;;;;;;;29.23;26.10;;;;;;;13.51;100.00;100937.31;4980321;28;20320;-56
2022/11/01 03:16:04;;;;;;;27.60;23.70;;;;;;;13.55;100.00;100932.88;4975366;28;20295;-56
2022/11/01 03:18:33;;;;;;;27.65;22.92;;;;;;;13.73;100.00;100926.53;4975762;28;20335;-56
2022/11/01 03:21:14;;;;;;;28.13;25.10;;;;;;;13.55;100.00;100933.75;4975249;28;20246;-55
2022/11/01 03:23:44;;;;;;;27.48;23.77;;;;;;;13.60;100.00;100931.94;4970583;28;20234;-55
2022/11/01 03:26:15;;;;;;;28.35;23.85;;;;;;;13.56;100.00;100931.97;4981733;28;20759;-55
2022/11/01 03:28:43;;;;;;;29.08;22.70;;;;;;;13.63;100.00;100936.31;4982928;28;20249;-55
2022/11/01 03:31:12;;;;;;;26.80;23.92;;;;;;;13.61;100.00;100946.84;4983746;28;20727;-55
2022/11/01 03:33:42;;;;;;;30.67;27.35;;;;;;;13.35;100.00;100947.13;4979517;28;20331;-55
2022/11/01 03:36:11;;;;;;;30.73;22.73;;;;;;;13.48;100.00;100953.16;4980068;28;20244;-55
2022/11/01 03:38:41;;;;;;;26.70;23.15;;;;;;;13.41;100.00;100945.31;4969955;28;20235;-55
2022/11/01 03:41:12;;;;;;;31.23;24.00;;;;;;;13.38;100.00;100940.09;4976888;28;20238;-56
2022/11/01 03:43:39;;;;;;;28.63;23.20;;;;;;;13.57;100.00;100946.91;4977164;28;20234;-55
2022/11/01 03:46:06;;;;;;;32.33;26.35;;;;;;;13.46;100.00;100943.50;4973381;28;20885;-55
2022/11/01 03:48:33;;;;;;;28.30;24.77;;;;;;;13.42;100.00;100940.03;4971084;28;20725;-55
2022/11/01 03:51:00;;;;;;;31.65;22.35;;;;;;;13.57;100.00;100941.63;4982856;28;20429;-55
2022/11/01 03:53:28;;;;;;;28.17;23.98;;;;;;;13.61;100.00;100940.72;4978906;28;20238;-57
2022/11/01 03:55:55;;;;;;;32.80;23.02;;;;;;;13.61;100.00;100936.31;4967472;28;20348;-56
2022/11/01 03:58:22;;;;;;;26.38;21.15;;;;;;;13.67;100.00;100938.03;4971572;28;20256;-55
2022/11/01 04:00:49;;;;;;;27.67;21.58;;;;;;;13.59;100.00;100929.31;4980500;28;20234;-55
2022/11/01 04:03:16;;;;;;;27.88;23.25;;;;;;;13.55;100.00;100922.34;4985551;28;20233;-54
2022/11/01 04:05:43;;;;;;;30.55;24.17;;;;;;;13.48;100.00;100920.63;4982116;28;20230;-55
2022/11/01 04:08:11;;;;;;;34.38;23.20;;;;;;;13.49;100.00;100914.47;4976259;28;20245;-56
2022/11/01 04:10:39;;;;;;;30.25;24.73;;;;;;;13.52;100.00;100919.72;4975235;28;20234;-56
2022/11/01 04:13:06;;;;;;;38.45;29.40;;;;;;;13.30;100.00;100909.38;4976217;28;20238;-54
2022/11/01 04:21:05;;;;;;;28.45;23.38;;;;;;;13.45;100.00;100920.66;4977406;28;20348;-55
2022/11/01 04:23:32;;;;;;;33.63;25.88;;;;;;;13.27;100.00;100927.00;4973256;28;20313;-55
2022/11/01 04:26:00;;;;;;;25.25;21.75;;;;;;;13.28;100.00;100932.25;4975032;28;20869;-57
2022/11/01 04:28:27;;;;;;;27.55;24.30;;;;;;;13.18;100.00;100943.72;4979058;28;20677;-56
2022/11/01 04:30:54;;;;;;;29.15;24.42;;;;;;;13.04;100.00;100950.88;4975109;28;20237;-55
2022/11/01 04:33:21;;;;;;;29.30;24.13;;;;;;;13.00;100.00;100947.38;4981527;28;20245;-55
2022/11/01 04:35:47;;;;;;;28.67;22.23;;;;;;;13.02;100.00;100945.63;4984251;28;20249;-55
2022/11/01 04:38:14;;;;;;;29.75;23.52;;;;;;;13.05;100.00;100936.78;4982741;28;20237;-55
2022/11/01 04:40:42;;;;;;;32.72;22.90;;;;;;;13.34;100.00;100929.56;4974575;28;20247;-55
2022/11/01 04:43:11;;;;;;;31.40;25.80;;;;;;;13.29;100.00;100917.28;4968208;28;20288;-55
2022/11/01 04:45:37;;;;;;;32.30;25.92;;;;;;;13.36;100.00;100911.06;4976487;28;20253;-55
2022/11/01 04:48:06;;;;;;;32.17;25.70;;;;;;;13.27;100.00;100925.22;4977330;28;20333;-55
2022/11/01 04:50:33;;;;;;;33.15;26.25;;;;;;;13.19;100.00;100927.00;4974668;28;20234;-55
2022/11/01 04:53:00;;;;;;;30.15;24.90;;;;;;;13.11;100.00;100927.06;4980894;28;21306;-56
2022/11/01 04:55:28;;;;;;;26.50;23.77;;;;;;;13.02;100.00;100921.00;4973313;28;20669;-55
2022/11/01 04:57:55;;;;;;;27.13;24.05;;;;;;;12.90;100.00;100928.13;4972352;28;20700;-55
2022/11/01 05:00:23;;;;;;;26.73;23.80;;;;;;;13.00;100.00;100917.50;4976982;28;20313;-56
2022/11/01 05:02:50;;;;;;;36.05;23.50;;;;;;;13.00;100.00;100914.88;4981228;28;20313;-55
2022/11/01 05:05:18;;;;;;;32.67;25.75;;;;;;;13.14;100.00;100905.09;4970144;28;20233;-55
2022/11/01 05:07:45;;;;;;;31.30;26.02;;;;;;;13.11;100.00;100907.75;4974782;28;20265;-55
2022/11/01 05:10:13;;;;;;;34.97;25.50;;;;;;;13.09;100.00;100904.25;4980960;28;20237;-55
2022/11/01 05:12:40;;;;;;;30.88;25.55;;;;;;;13.08;100.00;100900.75;4974828;28;20247;-54
2022/11/01 05:15:08;;;;;;;29.05;25.10;;;;;;;13.10;100.00;100898.97;4971271;28;20226;-55
2022/11/01 05:17:41;;;;;;;36.15;26.55;;;;;;;13.00;100.00;100904.34;4968180;28;20245;-55
2022/11/01 05:20:09;;;;;;;33.20;26.63;;;;;;;12.88;100.00;100893.03;4973661;28;20242;-55
2022/11/01 05:22:37;;;;;;;30.98;26.23;;;;;;;12.79;100.00;100898.34;4982972;28;20308;-55
2022/11/01 05:25:04;;;;;;;34.72;28.48;;;;;;;12.88;100.00;100893.03;4979218;28;20274;-57
2022/11/01 05:27:31;;;;;;;29.13;24.42;;;;;;;13.06;100.00;100870.03;4970669;28;20242;-55
2022/11/01 05:29:58;;;;;;;34.00;27.25;;;;;;;13.10;100.00;100866.47;4974141;28;20706;-55
2022/11/01 05:32:25;;;;;;;31.17;27.15;;;;;;;12.95;100.00;100890.31;4982459;28;20234;-55
2022/11/01 05:34:53;;;;;;;40.15;29.58;;;;;;;12.86;100.00;100881.59;4974878;28;20582;-55
2022/11/01 05:37:20;;;;;;;32.83;26.38;;;;;;;12.90;100.00;100878.03;4979158;28;20306;-56
2022/11/01 05:39:46;;;;;;;29.67;24.70;;;;;;;12.95;100.00;100878.03;4983741;28;20329;-56
2022/11/01 05:42:14;;;;;;;34.70;26.20;;;;;;;12.85;100.00;100892.16;4979849;28;20241;-56
2022/11/01 05:44:40;;;;;;;29.80;25.60;;;;;;;12.84;100.00;100880.72;4973087;28;20261;-55
2022/11/01 05:47:07;;;;;;;30.33;25.67;;;;;;;12.87;100.00;100893.88;4977193;28;20631;-55
2022/11/01 05:49:34;;;;;;;30.65;26.20;;;;;;;12.83;100.00;100881.63;4984582;28;20304;-55
2022/11/01 05:52:02;;;;;;;32.90;24.42;;;;;;;12.96;100.00;100889.44;4985931;28;20720;-56
2022/11/01 05:54:29;;;;;;;36.13;27.95;;;;;;;12.79;100.00;100877.25;4986920;28;20237;-55
2022/11/01 05:56:56;;;;;;;33.33;26.92;;;;;;;12.63;100.00;100887.03;4982424;28;20241;-56
2022/11/01 05:59:23;;;;;;;36.80;25.85;;;;;;;12.65;100.00;100892.31;4978758;28;20706;-55
2022/11/01 06:01:50;;;;;;;35.75;26.85;;;;;;;12.62;100.00;100893.19;4980667;28;20241;-55
2022/11/01 06:04:17;;;;;;;37.45;28.70;;;;;;;12.49;100.00;100901.19;4978681;28;20792;-55
2022/11/01 06:06:44;;;;;;;34.60;26.05;;;;;;;12.47;100.00;100897.69;4976159;28;20387;-55
2022/11/01 06:09:12;;;;;;;33.10;26.38;;;;;;;12.40;100.00;100910.91;4975778;28;20268;-55
2022/11/01 06:11:39;;;;;;;35.42;26.33;;;;;;;12.26;100.00;100906.59;4967593;28;20254;-55
2022/11/01 06:14:06;;;;;;;33.53;26.42;;;;;;;12.37;100.00;100895.09;4975346;28;20735;-56
2022/11/01 06:16:32;;;;;;;37.03;26.10;;;;;;;12.46;100.00;100890.66;4979803;28;20261;-57
2022/11/01 06:18:59;;;;;;;30.58;24.20;;;;;;;12.59;100.00;100894.97;4979379;28;20234;-55
2022/11/01 06:21:26;;;;;;;29.52;25.08;;;;;;;12.52;100.00;100893.25;4980476;28;20261;-55
2022/11/01 06:23:53;;;;;;;31.23;24.83;;;;;;;12.50;100.00;100889.78;4977188;28;20246;-56
2022/11/01 06:26:21;;;;;;;35.55;26.85;;;;;;;12.61;100.00;100899.34;4985537;28;20233;-57
2022/11/01 06:28:48;;;;;;;35.08;25.70;;;;;;;12.71;100.00;100880.88;4986437;28;20443;-55
2022/11/01 06:31:15;;;;;;;30.60;25.83;;;;;;;12.76;100.00;100874.66;4975312;28;20720;-56
2022/11/01 06:33:42;;;;;;;29.10;25.23;;;;;;;12.65;100.00;100892.31;4979137;28;20241;-55
2022/11/01 06:36:09;;;;;;;34.25;25.42;;;;;;;12.74;100.00;100883.44;4978026;28;20238;-56
2022/11/01 06:38:36;;;;;;;29.10;24.67;;;;;;;12.77;100.00;100886.94;4977590;28;20796;-55
2022/11/01 06:41:03;;;;;;;30.27;25.17;;;;;;;12.56;100.00;100911.66;4988035;28;20238;-57
2022/11/01 06:43:31;;;;;;;31.33;23.77;;;;;;;12.50;100.00;100916.13;4984817;28;20234;-55
2022/11/01 06:46:00;;;;;;;30.55;25.55;;;;;;;12.45;100.00;100902.97;4983039;28;20326;-55
2022/11/01 06:48:27;;;;;;;29.15;24.52;;;;;;;12.39;100.00;100905.66;4975867;28;20246;-56
2022/11/01 06:50:54;;;;;;;30.98;26.35;;;;;;;12.33;100.00;100914.44;4977882;28;20273;-56
2022/11/01 06:53:22;;;;;;;32.08;26.40;;;;;;;12.22;100.00;100908.38;4975483;28;20236;-56
2022/11/01 06:55:49;;;;;;;32.20;25.08;;;;;;;12.23;100.00;100896.94;4979665;28;20238;-56
2022/11/01 06:58:16;;;;;;;36.20;25.67;;;;;;;12.40;100.00;100905.63;4976268;28;20236;-55
2022/11/01 07:00:44;;;;;;;32.50;23.80;;;;;;;12.46;100.00;100895.94;4978657;28;20261;-55
2022/11/01 07:03:12;;;;;;;29.30;24.52;;;;;;;12.44;100.00;100895.09;4973436;28;20581;-56
2022/11/01 07:05:40;;;;;;;34.30;25.73;;;;;;;12.33;100.00;100901.28;4971709;28;20230;-56
2022/11/01 07:08:09;;;;;;;29.58;24.38;;;;;;;12.44;100.00;100910.88;4978534;28;20586;-55
2022/11/01 07:10:37;;;;;;;29.50;25.15;;;;;;;12.48;100.00;100913.47;4980102;28;20233;-55
2022/11/01 07:13:05;;;;;;;31.73;24.27;;;;;;;12.47;100.00;100908.22;4975823;28;20245;-56
2022/11/01 07:15:31;;;;;;;29.02;23.55;;;;;;;12.66;100.00;100920.38;4981230;28;20325;-56
2022/11/01 07:18:01;;;;;;;32.80;25.05;;;;;;;12.58;100.00;100917.81;4977654;28;20230;-54
2022/11/01 07:20:29;;;;;;;27.73;23.90;;;;;;;12.56;100.00;100926.59;4977441;28;20262;-56
2022/11/01 07:22:59;;;;;;;31.15;25.13;;;;;;;12.41;100.00;100927.56;4974480;28;20373;-56
2022/11/01 07:25:27;;;;;;;47.60;25.80;;;;;;;12.45;100.00;100924.03;4976120;28;20238;-54
2022/11/01 07:27:54;;;;;;;29.60;24.98;;;;;;;12.59;100.00;100916.03;4974580;28;20245;-56
2022/11/01 07:30:21;;;;;;;27.75;23.77;;;;;;;12.73;100.00;100921.22;4977463;28;20234;-56
2022/11/01 07:32:47;;;;;;;31.67;23.83;;;;;;;12.78;100.00;100938.75;4975568;28;20231;-56
2022/11/01 07:35:16;;;;;;;30.73;23.67;;;;;;;12.61;100.00;100952.03;4978194;28;20855;-55
2022/11/01 07:37:42;;;;;;;28.05;23.20;;;;;;;12.54;100.00;100942.41;4969001;28;20287;-56
2022/11/01 07:40:11;;;;;;;28.50;23.17;;;;;;;12.48;100.00;100954.75;4969060;28;20234;-57
2022/11/01 07:42:42;;;;;;;28.85;24.40;;;;;;;12.48;100.00;100965.28;4977695;28;20230;-55
2022/11/01 07:45:10;;;;;;;28.50;23.13;;;;;;;12.46;100.00;100959.13;4970476;28;20317;-55
2022/11/01 07:47:36;;;;;;;32.65;24.98;;;;;;;12.43;100.00;100967.94;4977183;28;20226;-55
2022/11/01 07:50:05;;;;;;;29.45;24.00;;;;;;;12.42;100.00;100968.81;4978051;28;20290;-57
2022/11/01 07:52:33;;;;;;;31.42;24.00;;;;;;;12.34;100.00;100974.13;4976901;28;20333;-55
2022/11/01 07:55:00;;;;;;;32.20;23.45;;;;;;;12.43;100.00;100989.00;4977040;28;20270;-57
2022/11/01 07:57:26;;;;;;;29.15;23.08;;;;;;;12.47;100.00;100974.94;4975469;28;20253;-55
2022/11/01 07:59:53;;;;;;;31.55;23.13;;;;;;;12.40;100.00;100982.00;4974286;28;20326;-54
2022/11/01 08:02:20;;;;;;;26.95;23.40;;;;;;;12.45;100.00;100991.63;4979758;28;20397;-55
2022/11/01 08:04:47;;;;;;;29.45;22.67;;;;;;;12.52;100.00;100985.44;4976746;28;20241;-56
2022/11/01 08:07:14;;;;;;;30.00;22.92;;;;;;;12.60;100.00;100984.53;4975548;28;20230;-55
2022/11/01 08:09:43;;;;;;;27.67;23.30;;;;;;;12.66;100.00;100991.50;4978604;28;20234;-55
2022/11/01 08:12:09;;;;;;;30.63;22.40;;;;;;;12.66;100.00;100991.50;4973388;28;20235;-56
2022/11/01 08:14:36;;;;;;;26.63;22.65;;;;;;;12.66;100.00;100986.25;4974748;28;20234;-55
2022/11/01 08:17:03;;;;;;;26.08;20.67;;;;;;;12.71;100.00;100979.22;4977258;28;20248;-56
2022/11/01 08:19:32;;;;;;;23.60;20.23;;;;;;;12.80;100.00;100984.41;4972694;28;20234;-54
2022/11/01 08:21:59;;;;;;;25.10;20.48;;;;;;;12.75;100.00;100973.03;4976669;28;20238;-55
2022/11/01 08:24:26;;;;;;;20.75;18.67;;;;;;;12.80;100.00;100979.13;4972413;28;20838;-55
2022/11/01 08:26:54;;;;;;;22.40;20.08;;;;;;;12.79;100.00;100985.28;4976829;28;20807;-57
2022/11/01 08:29:21;;;;;;;27.70;23.27;;;;;;;12.86;100.00;100979.09;4973565;28;20230;-55
2022/11/01 08:31:49;;;;;;;21.98;18.92;;;;;;;12.86;100.00;100981.72;4973772;28;20226;-56
2022/11/01 08:34:15;;;;;;;21.98;18.85;;;;;;;12.88;100.00;100979.97;4978521;28;20610;-55
2022/11/01 08:36:42;;;;;;;22.75;18.90;;;;;;;13.00;100.00;100986.91;4976291;28;20230;-54
2022/11/01 08:39:09;;;;;;;22.85;19.80;;;;;;;12.97;100.00;100992.22;4976990;28;20321;-56
2022/11/01 08:41:36;;;;;;;21.55;18.05;;;;;;;13.10;100.00;100993.88;4974204;28;20226;-55
2022/11/01 08:44:04;;;;;;;25.85;19.05;;;;;;;13.12;100.00;100994.72;4982272;28;20391;-55
2022/11/01 08:46:31;;;;;;;24.83;19.83;;;;;;;13.16;100.00;100986.78;4983103;28;20258;-55
2022/11/01 08:48:59;;;;;;;22.13;18.45;;;;;;;13.38;100.00;100987.56;4976494;28;20234;-55
2022/11/01 08:51:27;;;;;;;20.27;17.77;;;;;;;13.36;100.00;100984.91;4979914;28;20300;-57
2022/11/01 08:53:54;;;;;;;21.95;17.17;;;;;;;13.42;100.00;100979.59;4974678;28;20273;-55
2022/11/01 08:56:23;;;;;;;22.05;17.95;;;;;;;13.57;100.00;100990.00;4977938;28;20723;-56
2022/11/01 08:58:50;;;;;;;21.80;17.55;;;;;;;13.55;100.00;100990.91;4969267;28;20685;-55
2022/11/01 09:01:18;;;;;;;19.52;17.52;;;;;;;13.52;100.00;100986.53;4973623;28;20735;-57
2022/11/01 09:03:45;;;;;;;22.00;17.65;;;;;;;13.58;100.00;100996.13;4981033;28;20313;-55
2022/11/01 09:06:11;;;;;;;19.42;17.05;;;;;;;13.61;100.00;101009.31;4980857;28;20315;-56
2022/11/01 09:08:38;;;;;;;19.58;17.58;;;;;;;13.68;100.00;100992.53;4975414;28;20240;-56
2022/11/01 09:11:06;;;;;;;19.48;16.77;;;;;;;13.65;100.00;100995.19;4973310;28;20225;-56
2022/11/01 09:13:33;;;;;;;22.33;18.52;;;;;;;13.78;100.00;100999.47;4986719;28;20230;-54
2022/11/01 09:16:04;;;;;;;16.35;14.63;;;;;;;13.77;100.00;100991.59;4977329;28;20244;-58
2022/11/01 09:18:32;;;;;;;19.05;16.58;;;;;;;13.76;100.00;100988.06;4986565;28;20237;-54
2022/11/01 09:20:59;;;;;;;19.30;17.23;;;;;;;13.78;100.00;100983.63;4982905;28;20238;-55
2022/11/01 09:23:26;;;;;;;18.85;15.90;;;;;;;13.73;100.00;100985.47;4978717;28;20293;-56
2022/11/01 09:25:53;;;;;;;20.35;15.80;;;;;;;13.80;100.00;100981.88;4978551;28;20261;-56
2022/11/01 09:28:20;;;;;;;17.90;14.68;;;;;;;13.82;100.00;100974.78;4976391;28;20252;-56
2022/11/01 09:30:47;;;;;;;18.15;16.05;;;;;;;13.90;100.00;100974.75;4981007;28;20233;-56
2022/11/01 09:33:13;;;;;;;18.80;15.68;;;;;;;13.95;100.00;100983.47;4978707;28;20804;-57
2022/11/01 09:35:42;;;;;;;20.45;17.00;;;;;;;13.98;100.00;100977.28;4982447;28;20272;-55
2022/11/01 09:38:09;;;;;;;19.48;15.52;;;;;;;14.10;100.00;100985.06;4971977;28;20862;-55
2022/11/01 09:40:42;;;;;;;17.95;15.98;;;;;;;14.14;100.00;101002.59;4978146;28;20238;-57
2022/11/01 09:43:10;;;;;;;20.67;15.55;;;;;;;14.24;100.00;101024.50;4977629;28;20234;-55
2022/11/01 09:45:37;;;;;;;20.40;17.35;;;;;;;14.21;100.00;101020.13;4973470;28;20325;-56
2022/11/01 09:48:05;;;;;;;23.25;16.05;;;;;;;14.28;100.00;101019.16;4974200;28;20660;-56
2022/11/01 09:50:34;;;;;;;16.83;15.00;;;;;;;14.29;100.00;101012.13;4979186;28;20297;-55
2022/11/01 09:53:04;;;;;;;22.38;15.57;;;;;;;14.40;100.00;101014.66;4983230;28;20277;-54
2022/11/01 09:55:40;;;;;;;16.33;14.35;;;;;;;14.41;100.00;101026.97;4977930;28;20972;-56
2022/11/01 09:58:16;;;;;;;26.98;15.75;;;;;;;14.42;100.00;101021.63;4984551;28;20238;-56
2022/11/01 10:00:47;;;;;;;20.33;14.27;;;;;;;14.48;100.00;101015.41;4977988;28;20230;-55
2022/11/01 10:03:36;;;;;;;21.15;16.08;;;;;;;14.45;100.00;101015.44;4978209;28;20230;-55
2022/11/01 10:06:08;;;;;;;16.38;13.93;;;;;;;14.48;100.00;101020.69;4984182;28;20473;-55
2022/11/01 10:08:47;;;;;;;16.52;13.57;;;;;;;14.60;100.00;101020.59;4984154;28;20230;-55
2022/11/01 10:11:34;;;;;;;19.60;14.52;;;;;;;14.54;100.00;101025.94;4982497;28;20289;-56
2022/11/01 10:14:06;;;;;;;17.95;14.77;;;;;;;14.57;100.00;101036.50;4978010;28;20254;-54
2022/11/01 10:16:36;;;;;;;16.33;13.32;;;;;;;14.57;100.00;101044.41;4986549;28;20611;-55
2022/11/01 10:19:05;;;;;;;15.95;13.35;;;;;;;14.62;100.00;101026.72;4980477;28;20238;-55
2022/11/01 10:21:41;;;;;;;16.88;13.50;;;;;;;14.59;100.00;101024.09;4980292;28;20230;-55
2022/11/01 10:24:17;;;;;;;14.93;13.43;;;;;;;14.58;100.00;101019.72;4980665;28;20218;-55
2022/11/01 10:26:46;;;;;;;15.45;12.23;;;;;;;14.58;100.00;101011.81;4978702;28;20229;-56
2022/11/01 10:29:16;;;;;;;16.60;13.02;;;;;;;14.55;100.00;101004.78;4973617;28;20766;-55
2022/11/01 10:31:45;;;;;;;17.42;12.07;;;;;;;14.54;100.00;101012.75;4978085;28;20317;-55
2022/11/01 10:34:17;;;;;;;15.90;11.50;;;;;;;14.57;100.00;101018.00;4977766;28;20235;-56
2022/11/01 10:36:45;;;;;;;16.52;13.23;;;;;;;14.51;100.00;101029.50;4975123;28;20241;-56
2022/11/01 10:39:18;;;;;;;15.73;13.20;;;;;;;14.49;100.00;101038.28;4973879;28;20258;-55
2022/11/01 10:41:48;;;;;;;20.77;14.05;;;;;;;14.43;100.00;101038.41;4977515;28;20626;-55
2022/11/01 10:44:16;;;;;;;16.08;13.75;;;;;;;14.36;100.00;101044.66;4983022;28;20230;-56
2022/11/01 10:46:46;;;;;;;22.55;13.98;;;;;;;14.41;100.00;101048.09;4980463;28;20240;-55
2022/11/01 10:49:19;;;;;;;18.98;14.02;;;;;;;14.40;100.00;101051.63;4979771;28;20226;-55
2022/11/01 10:51:47;;;;;;;16.02;13.15;;;;;;;14.41;100.00;101053.38;4980059;28;20253;-56
2022/11/01 10:54:18;;;;;;;21.73;15.00;;;;;;;14.44;100.00;101062.13;4980438;28;20230;-55
2022/11/01 10:56:48;;;;;;;18.63;14.07;;;;;;;14.45;100.00;101058.59;4979560;28;20238;-55
2022/11/01 10:59:17;;;;;;;16.75;14.95;;;;;;;14.49;100.00;101043.56;4980645;28;20465;-56
2022/11/01 11:01:45;;;;;;;14.75;12.55;;;;;;;14.59;100.00;101039.09;4976113;28;20306;-55
2022/11/01 11:04:15;;;;;;;17.92;13.35;;;;;;;14.60;100.00;101036.44;4981355;28;20284;-55
2022/11/01 11:06:42;;;;;;;15.68;12.85;;;;;;;14.67;100.00;101038.13;4979420;28;20837;-56
2022/11/01 11:09:18;;;;;;;16.17;13.30;;;;;;;14.70;100.00;101038.06;4980693;28;20238;-56
2022/11/01 11:11:47;;;;;;;16.23;14.07;;;;;;;14.75;100.00;101036.25;4974509;28;20230;-55
2022/11/01 11:14:14;;;;;;;17.88;13.25;;;;;;;14.85;100.00;101039.63;4975538;28;20634;-55